createdAt,value
2018-12-29T00:00:32.506Z,5.00
2018-12-29T00:03:01.354Z,5.67
2018-12-29T00:05:30.154Z,5.17
2018-12-29T00:08:00.613Z,5.37
2018-12-29T00:10:34.079Z,5.20
2018-12-29T00:13:22.322Z,5.00
2018-12-29T00:15:56.241Z,5.20
2018-12-29T00:18:40.649Z,4.80
2018-12-29T00:21:11.122Z,4.90
2018-12-29T00:23:39.672Z,4.77
2018-12-29T00:26:09.458Z,5.63
2018-12-29T00:28:44.077Z,5.30
2018-12-29T00:31:15.134Z,5.47
2018-12-29T00:33:43.804Z,5.43
2018-12-29T00:36:12.895Z,5.47
2018-12-29T00:38:46.488Z,5.20
2018-12-29T00:41:19.966Z,4.97
2018-12-29T00:43:48.756Z,5.20
2018-12-29T00:46:21.535Z,5.03
2018-12-29T00:48:51.930Z,5.20
2018-12-29T00:51:21.501Z,4.83
2018-12-29T00:53:50.059Z,5.10
2018-12-29T00:56:22.578Z,5.10
2018-12-29T00:58:51.690Z,4.90
2018-12-29T01:01:20.212Z,4.67
2018-12-29T01:03:49.075Z,4.90
2018-12-29T01:06:17.956Z,5.07
2018-12-29T01:08:46.501Z,5.00
2018-12-29T01:11:15.021Z,5.47
2018-12-29T01:13:44.102Z,5.07
2018-12-29T01:16:14.290Z,5.37
2018-12-29T01:18:44.881Z,5.07
2018-12-29T01:21:17.531Z,5.73
2018-12-29T01:23:46.050Z,5.17
2018-12-29T01:26:15.182Z,4.93
2018-12-29T01:28:48.318Z,4.70
2018-12-29T01:31:19.163Z,4.83
2018-12-29T01:33:51.577Z,5.00
2018-12-29T01:36:21.676Z,5.10
2018-12-29T01:38:56.075Z,4.80
2018-12-29T01:41:25.942Z,5.37
2018-12-29T01:43:55.644Z,4.83
2018-12-29T01:46:25.833Z,5.63
2018-12-29T01:49:00.343Z,4.97
2018-12-29T01:51:29.013Z,4.80
2018-12-29T01:53:59.161Z,5.47
2018-12-29T01:56:28.917Z,5.40
2018-12-29T01:58:59.997Z,4.73
2018-12-29T02:01:31.953Z,4.77
2018-12-29T02:04:03.218Z,5.00
2018-12-29T02:06:33.256Z,4.97
2018-12-29T02:09:05.163Z,5.23
2018-12-29T02:11:35.765Z,5.03
2018-12-29T02:14:05.924Z,5.03
2018-12-29T02:16:35.342Z,4.93
2018-12-29T02:19:05.031Z,5.13
2018-12-29T02:21:33.572Z,4.80
2018-12-29T02:24:03.721Z,4.73
2018-12-29T02:26:33.900Z,4.93
2018-12-29T02:29:04.051Z,4.63
2018-12-29T02:31:34.529Z,5.40
2018-12-29T02:34:03.604Z,4.83
2018-12-29T02:36:33.754Z,5.07
2018-12-29T02:39:07.046Z,5.33
2018-12-29T02:41:39.730Z,8.47
2018-12-29T02:44:10.894Z,5.20
2018-12-29T02:46:43.158Z,5.23
2018-12-29T02:49:12.623Z,5.40
2018-12-29T02:51:41.169Z,6.20
2018-12-29T02:54:12.756Z,5.37
2018-12-29T02:56:46.171Z,5.63
2018-12-29T02:59:16.489Z,4.50
2018-12-29T03:01:45.597Z,4.77
2018-12-29T03:04:14.121Z,5.33
2018-12-29T03:06:44.825Z,5.23
2018-12-29T03:09:15.996Z,4.93
2018-12-29T03:11:46.800Z,4.80
2018-12-29T03:14:17.479Z,5.50
2018-12-29T03:16:51.602Z,4.80
2018-12-29T03:19:21.748Z,5.37
2018-12-29T03:21:50.307Z,7.30
2018-12-29T03:24:20.496Z,5.33
2018-12-29T03:26:50.069Z,4.80
2018-12-29T03:29:20.230Z,4.70
2018-12-29T03:31:50.966Z,4.57
2018-12-29T03:34:19.762Z,5.10
2018-12-29T03:36:49.490Z,4.93
2018-12-29T03:39:17.993Z,5.43
2018-12-29T03:41:48.486Z,4.87
2018-12-29T03:44:18.912Z,5.27
2018-12-29T03:46:49.276Z,5.10
2018-12-29T03:49:20.682Z,5.10
2018-12-29T03:51:50.067Z,4.87
2018-12-29T03:54:18.582Z,5.37
2018-12-29T03:56:48.748Z,5.30
2018-12-29T03:59:19.750Z,5.03
2018-12-29T04:01:50.997Z,5.03
2018-12-29T04:04:22.486Z,5.67
2018-12-29T04:06:52.965Z,5.47
2018-12-29T04:09:33.428Z,5.10
2018-12-29T04:12:09.343Z,5.13
2018-12-29T04:14:37.912Z,4.70
2018-12-29T04:17:08.890Z,4.70
2018-12-29T04:19:42.182Z,4.60
2018-12-29T04:22:14.368Z,5.30
2018-12-29T04:24:47.856Z,5.40
2018-12-29T04:27:18.306Z,4.97
2018-12-29T04:29:47.853Z,4.77
2018-12-29T04:32:18.783Z,5.50
2018-12-29T04:34:50.460Z,4.60
2018-12-29T04:37:21.254Z,5.30
2018-12-29T04:39:49.799Z,4.10
2018-12-29T04:42:18.887Z,4.87
2018-12-29T04:44:47.436Z,5.23
2018-12-29T04:47:19.273Z,4.30
2018-12-29T04:49:50.386Z,4.93
2018-12-29T04:52:20.442Z,4.50
2018-12-29T04:54:49.543Z,4.50
2018-12-29T04:57:19.391Z,4.70
2018-12-29T04:59:50.568Z,5.23
2018-12-29T05:02:20.452Z,4.73
2018-12-29T05:04:53.524Z,4.77
2018-12-29T05:07:25.322Z,4.67
2018-12-29T05:09:57.085Z,4.80
2018-12-29T05:12:26.929Z,4.70
2018-12-29T05:14:56.281Z,5.03
2018-12-29T05:17:25.936Z,4.53
2018-12-29T05:19:56.414Z,4.43
2018-12-29T05:22:25.935Z,4.27
2018-12-29T05:24:57.403Z,4.30
2018-12-29T05:27:25.932Z,4.80
2018-12-29T05:29:54.464Z,4.57
2018-12-29T05:32:23.799Z,4.73
2018-12-29T05:34:55.600Z,4.80
2018-12-29T05:37:25.651Z,4.70
2018-12-29T05:40:00.167Z,4.73
2018-12-29T05:42:30.085Z,4.47
2018-12-29T05:45:01.633Z,4.77
2018-12-29T05:47:32.716Z,4.20
2018-12-29T05:50:03.495Z,4.40
2018-12-29T05:52:33.744Z,4.77
2018-12-29T05:55:03.670Z,4.77
2018-12-29T05:57:33.950Z,5.10
2018-12-29T06:00:04.802Z,5.17
2018-12-29T06:02:35.494Z,4.80
2018-12-29T06:05:05.563Z,4.80
2018-12-29T06:07:38.102Z,4.60
2018-12-29T06:10:09.560Z,4.77
2018-12-29T06:12:39.956Z,4.43
2018-12-29T06:15:11.088Z,4.43
2018-12-29T06:17:43.170Z,5.00
2018-12-29T06:20:15.790Z,4.70
2018-12-29T06:22:46.287Z,4.80
2018-12-29T06:25:17.272Z,5.00
2018-12-29T06:27:47.782Z,4.43
2018-12-29T06:30:19.630Z,4.30
2018-12-29T06:32:50.191Z,4.90
2018-12-29T06:35:23.035Z,4.77
2018-12-29T06:37:53.293Z,4.57
2018-12-29T06:40:26.267Z,4.63
2018-12-29T06:42:55.685Z,4.63
2018-12-29T06:45:24.239Z,4.80
2018-12-29T06:47:53.320Z,4.00
2018-12-29T06:50:22.808Z,4.57
2018-12-29T06:52:52.960Z,6.70
2018-12-29T06:55:22.520Z,4.60
2018-12-29T06:57:53.951Z,4.83
2018-12-29T07:00:22.505Z,4.97
2018-12-29T07:02:55.460Z,4.57
2018-12-29T07:05:25.645Z,4.60
2018-12-29T07:07:54.161Z,4.80
2018-12-29T07:10:24.040Z,4.83
2018-12-29T07:12:59.664Z,6.20
2018-12-29T07:15:32.909Z,4.60
2018-12-29T07:18:05.681Z,4.73
2018-12-29T07:20:36.391Z,5.43
2018-12-29T07:23:12.637Z,4.60
2018-12-29T07:25:44.309Z,4.67
2018-12-29T07:28:14.098Z,4.50
2018-12-29T07:30:42.625Z,5.17
2018-12-29T07:33:14.567Z,4.63
2018-12-29T07:35:43.678Z,5.00
2018-12-29T07:38:12.191Z,4.10
2018-12-29T07:40:42.336Z,6.00
2018-12-29T07:43:13.216Z,4.33
2018-12-29T07:45:43.681Z,5.73
2018-12-29T07:48:13.750Z,4.63
2018-12-29T07:50:42.289Z,4.43
2018-12-29T07:53:12.466Z,4.30
2018-12-29T07:55:42.035Z,5.00
2018-12-29T07:58:12.560Z,4.77
2018-12-29T08:00:42.223Z,4.20
2018-12-29T08:03:11.016Z,4.70
2018-12-29T08:05:41.175Z,4.40
2018-12-29T08:08:09.717Z,4.10
2018-12-29T08:10:38.859Z,4.57
2018-12-29T08:13:07.480Z,5.07
2018-12-29T08:15:36.117Z,4.40
2018-12-29T08:18:05.942Z,4.33
2018-12-29T08:20:35.058Z,4.30
2018-12-29T08:23:04.170Z,4.83
2018-12-29T08:25:33.638Z,5.10
2018-12-29T08:28:02.517Z,4.97
2018-12-29T08:30:32.929Z,4.70
2018-12-29T08:33:04.085Z,4.60
2018-12-29T08:35:35.283Z,4.50
2018-12-29T08:38:05.118Z,5.20
2018-12-29T08:40:35.639Z,4.70
2018-12-29T08:43:11.656Z,4.80
2018-12-29T08:45:43.375Z,4.40
2018-12-29T08:48:15.215Z,4.37
2018-12-29T08:50:46.396Z,4.43
2018-12-29T08:53:16.318Z,5.10
2018-12-29T08:55:47.167Z,4.77
2018-12-29T08:58:17.184Z,4.53
2018-12-29T09:00:47.196Z,4.37
2018-12-29T09:03:17.656Z,4.90
2018-12-29T09:05:46.430Z,4.43
2018-12-29T09:08:17.938Z,5.00
2018-12-29T09:10:46.745Z,4.83
2018-12-29T09:13:17.996Z,4.63
2018-12-29T09:15:46.796Z,5.27
2018-12-29T09:18:15.355Z,4.33
2018-12-29T09:20:43.873Z,4.60
2018-12-29T09:23:12.416Z,4.17
2018-12-29T09:25:42.178Z,4.40
2018-12-29T09:28:12.813Z,5.40
2018-12-29T09:30:42.920Z,6.60
2018-12-29T09:33:11.708Z,5.73
2018-12-29T09:35:41.412Z,5.13
2018-12-29T09:38:09.961Z,7.70
2018-12-29T09:40:38.464Z,4.73
2018-12-29T09:43:07.013Z,11.80
2018-12-29T09:45:35.528Z,5.67
2018-12-29T09:48:05.682Z,10.30
2018-12-29T09:50:35.588Z,7.17
2018-12-29T09:53:05.177Z,5.23
2018-12-29T09:55:36.328Z,5.17
2018-12-29T09:58:05.913Z,5.33
2018-12-29T10:00:35.888Z,6.00
2018-12-29T10:03:05.778Z,4.70
2018-12-29T10:05:37.388Z,4.70
2018-12-29T10:08:08.099Z,5.57
2018-12-29T10:10:38.546Z,4.73
2018-12-29T10:13:09.909Z,4.40
2018-12-29T10:15:38.745Z,4.30
2018-12-29T10:18:08.281Z,4.63
2018-12-29T10:20:38.369Z,5.43
2018-12-29T10:23:07.826Z,5.53
2018-12-29T10:25:38.254Z,4.70
2018-12-29T10:28:08.889Z,4.23
2018-12-29T10:30:37.543Z,4.53
2018-12-29T10:33:06.065Z,4.17
2018-12-29T10:35:34.610Z,3.90
2018-12-29T10:38:03.388Z,4.47
2018-12-29T10:40:31.926Z,4.57
2018-12-29T10:43:00.437Z,4.90
2018-12-29T10:45:28.989Z,5.43
2018-12-29T10:47:57.506Z,4.43
2018-12-29T10:50:26.039Z,4.87
2018-12-29T10:52:55.061Z,5.13
2018-12-29T10:55:23.602Z,4.50
2018-12-29T10:57:52.112Z,5.23
2018-12-29T11:00:22.032Z,4.60
2018-12-29T11:02:51.590Z,4.53
2018-12-29T11:05:20.133Z,4.87
2018-12-29T11:07:48.666Z,4.30
2018-12-29T11:10:17.747Z,4.83
2018-12-29T11:12:46.270Z,4.47
2018-12-29T11:15:16.512Z,4.70
2018-12-29T11:17:47.189Z,4.33
2018-12-29T11:20:15.722Z,4.63
2018-12-29T11:22:45.768Z,4.60
2018-12-29T11:25:14.892Z,3.90
2018-12-29T11:27:45.143Z,4.07
2018-12-29T11:30:14.251Z,4.80
2018-12-29T11:32:44.401Z,4.33
2018-12-29T11:35:14.580Z,4.90
2018-12-29T11:37:45.790Z,6.80
2018-12-29T11:40:17.265Z,4.50
2018-12-29T11:42:47.102Z,4.07
2018-12-29T11:45:15.650Z,4.73
2018-12-29T11:47:49.996Z,4.10
2018-12-29T11:50:19.269Z,4.70
2018-12-29T11:52:51.245Z,4.40
2018-12-29T11:55:20.870Z,6.90
2018-12-29T11:57:50.687Z,4.13
2018-12-29T12:00:21.643Z,3.80
2018-12-29T12:02:50.993Z,3.63
2018-12-29T12:05:19.628Z,4.37
2018-12-29T12:07:51.395Z,4.60
2018-12-29T12:10:21.591Z,3.93
2018-12-29T12:12:53.676Z,4.53
2018-12-29T12:15:25.245Z,3.83
2018-12-29T12:17:57.481Z,4.27
2018-12-29T12:20:27.489Z,3.90
2018-12-29T12:23:00.475Z,4.03
2018-12-29T12:25:30.273Z,4.20
2018-12-29T12:28:00.239Z,3.73
2018-12-29T12:30:30.383Z,3.53
2018-12-29T12:32:58.927Z,4.27
2018-12-29T12:35:29.359Z,3.80
2018-12-29T12:37:59.096Z,3.80
2018-12-29T12:40:29.589Z,3.90
2018-12-29T12:42:58.692Z,4.70
2018-12-29T12:45:28.841Z,3.87
2018-12-29T12:48:05.040Z,4.40
2018-12-29T12:50:29.473Z,3.90
2018-12-29T12:52:59.648Z,4.00
2018-12-29T12:55:30.518Z,4.17
2018-12-29T12:58:00.652Z,4.00
2018-12-29T13:00:30.580Z,6.67
2018-12-29T13:03:00.624Z,3.80
2018-12-29T13:05:30.791Z,5.47
2018-12-29T13:08:01.245Z,4.47
2018-12-29T13:10:29.782Z,3.87
2018-12-29T13:12:59.465Z,4.20
2018-12-29T13:15:29.890Z,5.80
2018-12-29T13:17:58.423Z,6.03
2018-12-29T13:20:28.593Z,6.07
2018-12-29T13:23:00.005Z,6.43
2018-12-29T13:25:28.804Z,15.07
2018-12-29T13:27:58.983Z,13.37
2018-12-29T13:30:28.635Z,13.50
2018-12-29T13:32:58.337Z,7.93
2018-12-29T13:35:27.923Z,9.30
2018-12-29T13:37:57.804Z,10.80
2018-12-29T13:40:28.065Z,10.73
2018-12-29T13:42:56.818Z,10.90
2018-12-29T13:45:25.334Z,8.97
2018-12-29T13:47:53.873Z,11.40
2018-12-29T13:50:23.528Z,6.90
2018-12-29T13:52:53.708Z,12.70
2018-12-29T13:55:22.330Z,10.17
2018-12-29T14:01:24.961Z,8.03
2018-12-29T14:03:53.387Z,7.23
2018-12-29T14:06:24.238Z,6.30
2018-12-29T14:08:54.839Z,8.70
2018-12-29T14:11:23.534Z,11.60
2018-12-29T14:13:52.251Z,6.97
2018-12-29T14:16:20.666Z,6.97
2018-12-29T14:18:50.226Z,9.23
2018-12-29T14:21:18.910Z,7.03
2018-12-29T14:23:47.340Z,8.37
2018-12-29T14:26:15.885Z,6.53
2018-12-29T14:28:44.325Z,9.57
2018-12-29T14:31:14.161Z,6.90
2018-12-29T14:33:45.038Z,9.83
2018-12-29T14:36:14.971Z,6.10
2018-12-29T14:38:48.425Z,6.20
2018-12-29T14:41:17.101Z,6.57
2018-12-29T14:43:45.541Z,7.63
2018-12-29T14:46:14.300Z,6.20
2018-12-29T14:48:43.310Z,6.27
2018-12-29T14:51:14.588Z,7.73
2018-12-29T14:53:52.097Z,6.33
2018-12-29T14:56:23.390Z,6.83
2018-12-29T14:58:51.821Z,7.97
2018-12-29T15:01:20.255Z,6.07
2018-12-29T15:03:50.338Z,6.77
2018-12-29T15:09:15.155Z,5.37
2018-12-29T15:11:45.910Z,8.83
2018-12-29T15:14:15.591Z,6.40
2018-12-29T15:16:46.514Z,6.53
2018-12-29T15:19:14.959Z,7.07
2018-12-29T15:21:43.379Z,10.07
2018-12-29T15:24:14.701Z,12.90
2018-12-29T15:26:47.842Z,7.97
2018-12-29T15:29:16.791Z,8.57
2018-12-29T15:31:45.240Z,6.83
2018-12-29T15:34:13.691Z,11.57
2018-12-29T15:36:42.091Z,5.73
2018-12-29T15:39:10.784Z,7.43
2018-12-29T15:41:39.204Z,6.20
2018-12-29T15:44:07.603Z,8.17
2018-12-29T15:46:36.035Z,5.57
2018-12-29T15:49:04.439Z,7.80
2018-12-29T15:51:32.883Z,8.67
2018-12-29T15:54:01.288Z,6.67
2018-12-29T15:56:30.033Z,6.00
2018-12-29T15:58:59.755Z,5.97
2018-12-29T16:01:28.189Z,5.30
2018-12-29T16:03:56.593Z,6.03
2018-12-29T16:06:25.020Z,5.23
2018-12-29T16:08:53.432Z,5.30
2018-12-29T16:11:26.125Z,6.00
2018-12-29T16:13:53.532Z,5.07
2018-12-29T16:16:23.314Z,6.97
2018-12-29T16:18:58.678Z,5.50
2018-12-29T16:21:22.047Z,5.70
2018-12-29T16:23:51.852Z,5.67
2018-12-29T16:26:20.543Z,5.80
2018-12-29T16:28:48.958Z,6.63
2018-12-29T16:31:19.023Z,6.80
2018-12-29T16:33:53.767Z,7.53
2018-12-29T16:36:19.628Z,5.80
2018-12-29T16:38:48.050Z,10.23
2018-12-29T16:41:18.114Z,6.43
2018-12-29T16:43:46.830Z,5.67
2018-12-29T16:46:15.273Z,8.00
2018-12-29T16:48:43.688Z,5.73
2018-12-29T16:51:16.991Z,5.37
2018-12-29T16:53:52.860Z,5.70
2018-12-29T16:56:24.004Z,5.77
2018-12-29T16:58:55.198Z,7.00
2018-12-29T17:01:23.757Z,4.77
2018-12-29T17:03:53.301Z,5.83
2018-12-29T17:06:22.173Z,5.53
2018-12-29T17:08:55.013Z,6.17
2018-12-29T17:11:25.860Z,5.90
2018-12-29T17:13:57.149Z,5.40
2018-12-29T17:16:25.598Z,6.73
2018-12-29T17:18:55.273Z,6.13
2018-12-29T17:21:24.741Z,5.30
2018-12-29T17:23:54.713Z,6.00
2018-12-29T17:26:23.722Z,6.67
2018-12-29T17:28:52.692Z,6.03
2018-12-29T17:31:21.660Z,6.03
2018-12-29T17:33:53.703Z,5.90
2018-12-29T17:36:21.839Z,5.53
2018-12-29T17:38:50.432Z,5.77
2018-12-29T17:41:19.523Z,5.33
2018-12-29T17:43:48.592Z,5.83
2018-12-29T17:46:23.011Z,5.80
2018-12-29T17:48:54.045Z,6.30
2018-12-29T17:51:24.147Z,5.33
2018-12-29T17:56:46.895Z,6.27
2018-12-29T17:59:23.593Z,5.60
2018-12-29T18:01:52.459Z,6.47
2018-12-29T18:04:22.497Z,5.70
2018-12-29T18:06:50.938Z,6.53
2018-12-29T18:09:22.532Z,6.13
2018-12-29T18:11:53.989Z,6.10
2018-12-29T18:14:23.557Z,7.70
2018-12-29T18:16:51.976Z,5.67
2018-12-29T18:19:30.321Z,7.83
2018-12-29T18:21:59.721Z,6.13
2018-12-29T18:24:35.657Z,6.07
2018-12-29T18:27:05.301Z,5.10
2018-12-29T18:29:40.284Z,6.07
2018-12-29T18:32:13.244Z,5.40
2018-12-29T18:34:43.204Z,6.93
2018-12-29T18:37:13.682Z,7.53
2018-12-29T18:39:45.962Z,5.43
2018-12-29T18:42:16.148Z,6.00
2018-12-29T18:44:44.820Z,7.77
2018-12-29T18:47:14.856Z,5.57
2018-12-29T18:49:44.814Z,9.00
2018-12-29T18:52:16.494Z,5.90
2018-12-29T18:54:45.496Z,5.47
2018-12-29T18:57:13.896Z,5.47
2018-12-29T18:59:45.390Z,11.87
2018-12-29T19:02:27.571Z,5.67
2018-12-29T19:05:06.551Z,5.37
2018-12-29T19:07:42.321Z,5.50
2018-12-29T19:10:22.993Z,5.33
2018-12-29T19:15:32.665Z,6.73
2018-12-29T19:18:07.756Z,5.33
2018-12-29T19:20:39.314Z,5.03
2018-12-29T19:23:08.064Z,5.73
2018-12-29T19:25:36.492Z,4.93
2018-12-29T19:28:08.443Z,5.10
2018-12-29T19:30:41.167Z,6.77
2018-12-29T19:33:13.132Z,5.13
2018-12-29T19:35:43.190Z,4.93
2018-12-29T19:38:13.444Z,5.17
2018-12-29T19:40:45.426Z,5.23
2018-12-29T19:43:20.137Z,4.90
2018-12-29T19:45:50.149Z,4.73
2018-12-29T19:48:26.624Z,5.50
2018-12-29T19:50:58.852Z,4.80
2018-12-29T19:53:30.642Z,4.83
2018-12-29T19:55:59.065Z,4.80
2018-12-29T19:58:28.679Z,4.77
2018-12-29T20:01:06.892Z,4.40
2018-12-29T20:03:36.968Z,4.67
2018-12-29T20:06:18.053Z,5.10
2018-12-29T20:08:40.098Z,4.73
2018-12-29T20:11:12.236Z,4.40
2018-12-29T20:13:42.551Z,4.70
2018-12-29T20:16:18.241Z,5.17
2018-12-29T20:18:48.384Z,4.83
2018-12-29T20:21:19.996Z,4.53
2018-12-29T20:23:48.403Z,4.80
2018-12-29T20:26:16.943Z,4.13
2018-12-29T20:28:48.065Z,4.67
2018-12-29T20:31:21.144Z,5.07
2018-12-29T20:33:49.558Z,4.17
2018-12-29T20:36:20.458Z,4.67
2018-12-29T20:38:48.882Z,4.03
2018-12-29T20:41:17.926Z,4.10
2018-12-29T20:43:54.149Z,3.90
2018-12-29T20:46:28.554Z,4.50
2018-12-29T20:49:03.765Z,4.27
2018-12-29T20:51:35.152Z,4.53
2018-12-29T20:54:05.300Z,4.30
2018-12-29T20:56:38.306Z,4.03
2018-12-29T20:59:06.845Z,4.17
2018-12-29T21:01:37.870Z,4.17
2018-12-29T21:04:09.549Z,3.80
2018-12-29T21:06:38.546Z,4.50
2018-12-29T21:09:08.661Z,3.80
2018-12-29T21:11:42.443Z,4.00
2018-12-29T21:14:13.287Z,3.87
2018-12-29T21:16:44.341Z,4.00
2018-12-29T21:19:12.749Z,4.10
2018-12-29T21:21:43.940Z,4.57
2018-12-29T21:24:13.980Z,6.40
2018-12-29T21:26:47.788Z,4.17
2018-12-29T21:29:18.133Z,3.80
2018-12-29T21:31:47.944Z,3.97
2018-12-29T21:34:16.941Z,4.50
2018-12-29T21:36:47.248Z,4.13
2018-12-29T21:39:19.534Z,3.97
2018-12-29T21:41:53.270Z,4.37
2018-12-29T21:44:27.629Z,4.80
2018-12-29T21:47:01.005Z,4.43
2018-12-29T21:49:30.633Z,3.73
2018-12-29T21:52:08.105Z,4.20
2018-12-29T21:54:40.199Z,4.10
2018-12-29T21:57:12.864Z,3.67
2018-12-29T21:59:44.027Z,4.33
2018-12-29T22:05:18.561Z,3.70
2018-12-29T22:07:50.194Z,3.93
2018-12-29T22:10:20.541Z,4.10
2018-12-29T22:12:56.309Z,3.97
2018-12-29T22:15:34.708Z,4.07
2018-12-29T22:18:04.773Z,4.60
2018-12-29T22:20:39.335Z,4.53
2018-12-29T22:23:10.321Z,3.87
2018-12-29T22:25:38.719Z,4.23
2018-12-29T22:28:07.458Z,3.57
2018-12-29T22:30:36.162Z,3.90
2018-12-29T22:33:05.826Z,4.50
2018-12-29T22:35:35.310Z,6.40
2018-12-29T22:38:04.317Z,5.87
2018-12-29T22:40:36.010Z,6.07
2018-12-29T22:43:04.584Z,14.13
2018-12-29T22:45:34.752Z,7.63
2018-12-29T22:48:03.753Z,3.90
2018-12-29T22:50:40.847Z,5.03
2018-12-29T22:53:03.868Z,4.17
2018-12-29T22:55:32.529Z,3.63
2018-12-29T22:58:08.391Z,4.10
2018-12-29T23:00:36.144Z,4.53
2018-12-29T23:03:08.839Z,4.23
2018-12-29T23:05:40.293Z,4.30
2018-12-29T23:08:11.631Z,4.20
2018-12-29T23:10:42.686Z,4.00
2018-12-29T23:13:13.578Z,3.70
2018-12-29T23:18:33.562Z,4.30
2018-12-29T23:21:06.637Z,4.53
2018-12-29T23:23:39.867Z,3.80
2018-12-29T23:26:08.626Z,4.20
2018-12-29T23:28:37.368Z,4.57
2018-12-29T23:31:06.295Z,3.63
2018-12-29T23:33:35.859Z,4.03
2018-12-29T23:36:07.503Z,3.83
2018-12-29T23:38:36.856Z,4.00
2018-12-29T23:41:06.924Z,4.07
2018-12-29T23:43:38.937Z,6.93
2018-12-29T23:46:10.014Z,3.83
2018-12-29T23:48:40.081Z,3.77
2018-12-29T23:51:11.285Z,4.40
2018-12-29T23:53:41.882Z,3.77
2018-12-29T23:56:12.623Z,3.87
2018-12-29T23:58:42.299Z,4.20
